Time;durP1;ratioP1;P1;durP2;ratioP2;P2;SDS_P1;SDS_P2;PMS_P1;PMS_P2;Temp;Humidity;BMP_temperature;BMP_pressure;BME280_temperature;BME280_humidity;BME280_pressure;Samples;Min_cycle;Max_cycle;Signal;HPM_P1;HPM_P2
2020/12/29 00:00:50;;;;;;;;;;;;;;;8.72;58.61;98291.97;5134953;27;19928;-71
2020/12/29 00:03:17;;;;;;;;;;;;;;;8.75;58.84;98294.44;5127526;27;20026;-70
2020/12/29 00:05:45;;;;;;;;;;;;;;;8.78;58.79;98287.19;5136654;27;19948;-70
2020/12/29 00:08:12;;;;;;;;;;;;;;;8.81;58.70;98291.44;5133360;27;19923;-70
2020/12/29 00:10:39;;;;;;;;;;;;;;;8.84;58.74;98278.09;5134858;27;19928;-70
2020/12/29 00:13:06;;;;;;;;;;;;;;;8.87;58.94;98284.97;5135897;27;20019;-70
2020/12/29 00:15:33;;;;;;;;;;;;;;;8.90;58.87;98282.13;5124136;27;19932;-70
2020/12/29 00:18:00;;;;;;;;;;;;;;;8.91;58.91;98278.56;5128771;27;19927;-71
2020/12/29 00:20:27;;;;;;;;;;;;;;;8.92;58.47;98273.19;5125125;27;19924;-71
2020/12/29 00:22:56;;;;;;;;;;;;;;;8.92;58.80;98262.63;5131531;27;19927;-71
2020/12/29 00:25:23;;;;;;;;;;;;;;;8.93;59.16;98245.03;5130053;27;19930;-71
2020/12/29 00:27:49;;;;;;;;;;;;;;;8.94;58.64;98238.81;5127420;27;19928;-71
2020/12/29 00:30:16;;;;;;;;;;;;;;;8.93;58.60;98234.47;5126525;27;19927;-70
2020/12/29 00:32:43;;;;;;;;;;;;;;;8.93;58.83;98235.34;5132076;27;20296;-71
2020/12/29 00:35:10;;;;;;;;;;;;;;;8.92;58.95;98236.28;5134789;27;19949;-72
2020/12/29 00:37:37;;;;;;;;;;;;;;;8.92;59.15;98238.91;5141876;27;19923;-72
2020/12/29 00:40:06;;;;;;;;;;;;;;;8.92;59.14;98233.63;5126044;27;19932;-72
2020/12/29 00:42:33;;;;;;;;;;;;;;;8.93;59.01;98237.09;5165433;27;19931;-71
2020/12/29 00:45:14;;;;;;;;;;;;;;;8.92;58.82;98231.00;5118314;27;19952;-72
2020/12/29 00:47:44;;;;;;;;;;;;;;;8.92;58.76;98249.47;5123491;27;19992;-72
2020/12/29 00:50:11;;;;;;;;;;;;;;;8.90;58.85;98246.06;5130668;27;19923;-72
2020/12/29 00:52:38;;;;;;;;;;;;;;;8.89;58.82;98233.84;5140259;27;19977;-72
2020/12/29 00:55:20;;;;;;;;;;;;;;;8.89;59.23;98223.28;5119307;27;19928;-72
2020/12/29 00:57:50;;;;;;;;;;;;;;;8.89;59.17;98249.66;5121542;27;19958;-72
2020/12/29 01:00:17;;;;;;;;;;;;;;;8.90;58.69;98237.31;5120085;27;20739;-71
2020/12/29 01:03:16;;;;;;;;;;;;;;;8.87;59.08;98245.41;5119465;27;20513;-72
2020/12/29 01:05:44;;;;;;;;;;;;;;;8.87;59.35;98248.06;5121630;27;19924;-72
2020/12/29 01:08:11;;;;;;;;;;;;;;;8.86;58.90;98239.28;5116575;27;19938;-72
2020/12/29 01:10:51;;;;;;;;;;;;;;;8.85;59.36;98237.59;5131303;27;19938;-72
2020/12/29 01:13:44;;;;;;;;;;;;;;;8.85;59.52;98239.38;5119361;27;20031;-71
2020/12/29 01:16:13;;;;;;;;;;;;;;;8.83;59.52;98239.47;5120757;27;19957;-72
2020/12/29 01:18:42;;;;;;;;;;;;;;;8.83;59.54;98241.28;5124540;27;19972;-71
2020/12/29 01:21:10;;;;;;;;;;;;;;;8.82;59.41;98239.56;5122563;27;19928;-71
2020/12/29 01:23:37;;;;;;;;;;;;;;;8.82;59.12;98250.94;5120728;27;19935;-72
2020/12/29 01:26:07;;;;;;;;;;;;;;;8.80;59.43;98251.03;5113907;27;19938;-72
2020/12/29 01:28:36;;;;;;;;;;;;;;;8.78;58.91;98241.53;5118639;27;19931;-72
2020/12/29 01:31:03;;;;;;;;;;;;;;;8.78;59.57;98225.72;5126388;27;19940;-72
2020/12/29 01:33:30;;;;;;;;;;;;;;;8.77;59.33;98234.56;5121644;28;19931;-72
2020/12/29 01:35:57;;;;;;;;;;;;;;;8.75;59.29;98244.38;5120602;28;20218;-72
2020/12/29 01:38:24;;;;;;;;;;;;;;;8.73;59.60;98233.91;5119824;28;19961;-72
2020/12/29 01:40:58;;;;;;;;;;;;;;;8.72;59.31;98224.31;5111216;27;19939;-72
2020/12/29 01:43:28;;;;;;;;;;;;;;;8.72;59.82;98223.44;5120293;28;19934;-72
2020/12/29 01:45:56;;;;;;;;;;;;;;;8.71;59.64;98219.97;5118117;28;19928;-72
2020/12/29 01:48:24;;;;;;;;;;;;;;;8.70;59.83;98213.00;5127207;28;19928;-72
2020/12/29 01:50:51;;;;;;;;;;;;;;;8.69;59.78;98215.72;5153242;27;19927;-72
2020/12/29 01:53:18;;;;;;;;;;;;;;;8.66;59.31;98215.94;5113203;28;19924;-72
2020/12/29 01:55:45;;;;;;;;;;;;;;;8.64;59.28;98216.00;5130253;27;19950;-72
2020/12/29 01:58:12;;;;;;;;;;;;;;;8.64;59.80;98219.50;5126826;27;19938;-72
2020/12/29 02:00:40;;;;;;;;;;;;;;;8.63;59.50;98223.06;5126376;27;19955;-72
2020/12/29 02:03:08;;;;;;;;;;;;;;;8.62;59.16;98220.53;5127002;27;20433;-72
2020/12/29 02:05:36;;;;;;;;;;;;;;;8.61;59.28;98218.81;5157446;27;19951;-72
2020/12/29 02:08:03;;;;;;;;;;;;;;;8.58;59.48;98216.38;5122197;27;19928;-72
2020/12/29 02:10:30;;;;;;;;;;;;;;;8.58;59.78;98205.84;5119235;27;19978;-72
2020/12/29 02:12:57;;;;;;;;;;;;;;;8.57;59.97;98201.50;5121048;27;19927;-72
2020/12/29 02:15:24;;;;;;;;;;;;;;;8.56;59.45;98207.69;5128113;27;19991;-72
2020/12/29 02:17:52;;;;;;;;;;;;;;;8.54;59.71;98197.25;5123468;27;19927;-72
2020/12/29 02:20:19;;;;;;;;;;;;;;;8.53;59.33;98207.91;5116603;27;19994;-72
2020/12/29 02:22:47;;;;;;;;;;;;;;;8.52;59.20;98191.22;5118600;27;19967;-72
2020/12/29 02:25:14;;;;;;;;;;;;;;;8.52;59.70;98198.28;5121551;27;19953;-72
2020/12/29 02:27:45;;;;;;;;;;;;;;;8.49;59.76;98191.41;5121621;27;20457;-72
2020/12/29 02:30:12;;;;;;;;;;;;;;;8.48;59.52;98184.44;5127493;27;19928;-72
2020/12/29 02:32:39;;;;;;;;;;;;;;;8.48;59.61;98181.81;5125055;27;19927;-72
2020/12/29 02:35:06;;;;;;;;;;;;;;;8.48;59.54;98179.16;5120416;27;20465;-72
2020/12/29 02:37:34;;;;;;;;;;;;;;;8.47;59.70;98177.50;5122347;27;19968;-72
2020/12/29 02:40:03;;;;;;;;;;;;;;;8.47;59.95;98174.88;5122076;27;20022;-72
2020/12/29 02:42:31;;;;;;;;;;;;;;;8.46;59.42;98165.25;5144647;27;19924;-72
2020/12/29 02:44:58;;;;;;;;;;;;;;;8.45;59.42;98153.84;5126989;27;19938;-72
2020/12/29 02:47:25;;;;;;;;;;;;;;;8.46;59.61;98157.34;5122643;27;20515;-72
2020/12/29 02:49:52;;;;;;;;;;;;;;;8.46;59.37;98157.34;5120894;27;19938;-72
2020/12/29 02:52:19;;;;;;;;;;;;;;;8.45;59.43;98161.75;5121923;27;19927;-72
2020/12/29 02:54:46;;;;;;;;;;;;;;;8.44;59.76;98156.56;5128815;27;19934;-72
2020/12/29 02:57:14;;;;;;;;;;;;;;;8.44;59.60;98165.31;5123120;27;19931;-72
2020/12/29 02:59:40;;;;;;;;;;;;;;;8.43;59.57;98157.47;5126605;27;19932;-72
2020/12/29 03:02:07;;;;;;;;;;;;;;;8.43;59.28;98154.84;5127198;27;19928;-71
2020/12/29 03:04:35;;;;;;;;;;;;;;;8.42;59.45;98156.66;5119273;27;20432;-72
2020/12/29 03:07:02;;;;;;;;;;;;;;;8.43;59.82;98150.44;5123230;27;20453;-72
2020/12/29 03:09:28;;;;;;;;;;;;;;;8.44;59.52;98144.25;5124223;27;19938;-72
2020/12/29 03:11:55;;;;;;;;;;;;;;;8.48;60.02;98147.56;5123758;27;19995;-72
2020/12/29 03:14:23;;;;;;;;;;;;;;;8.50;59.61;98150.94;5125193;27;19924;-71
2020/12/29 03:16:50;;;;;;;;;;;;;;;8.52;59.54;98140.31;5131340;27;19939;-72
2020/12/29 03:19:22;;;;;;;;;;;;;;;8.55;59.65;98140.13;5125478;27;19923;-71
2020/12/29 03:21:49;;;;;;;;;;;;;;;8.59;59.45;98134.59;5126993;27;19927;-71
2020/12/29 03:24:16;;;;;;;;;;;;;;;8.61;59.40;98134.47;5125804;27;19923;-72
2020/12/29 03:26:43;;;;;;;;;;;;;;;8.68;59.36;98132.31;5124637;27;19938;-72
2020/12/29 03:29:10;;;;;;;;;;;;;;;8.73;59.25;98125.84;5121769;27;20618;-71
2020/12/29 03:31:43;;;;;;;;;;;;;;;8.79;59.36;98132.53;5124277;27;19945;-72
2020/12/29 03:34:15;;;;;;;;;;;;;;;8.80;59.04;98127.16;5121246;27;19931;-72
2020/12/29 03:36:42;;;;;;;;;;;;;;;8.81;58.92;98127.97;5123541;27;19965;-72
2020/12/29 03:39:09;;;;;;;;;;;;;;;8.83;59.40;98139.28;5121437;27;19953;-72
2020/12/29 03:41:37;;;;;;;;;;;;;;;8.84;59.45;98134.84;5139988;27;19938;-72
2020/12/29 03:44:05;;;;;;;;;;;;;;;8.87;59.37;98132.88;5126025;27;19928;-72
2020/12/29 03:46:32;;;;;;;;;;;;;;;8.88;59.54;98141.66;5123225;27;19958;-72
2020/12/29 03:49:00;;;;;;;;;;;;;;;8.89;58.68;98135.41;5123150;27;19942;-72
2020/12/29 03:51:27;;;;;;;;;;;;;;;8.90;59.21;98145.03;5124549;27;19959;-72
2020/12/29 03:53:54;;;;;;;;;;;;;;;8.92;59.44;98141.34;5121062;27;19999;-72
2020/12/29 03:56:20;;;;;;;;;;;;;;;8.92;59.30;98140.53;5123703;27;19962;-71
2020/12/29 03:58:47;;;;;;;;;;;;;;;8.91;58.95;98146.72;5118372;27;22288;-72
2020/12/29 04:01:14;;;;;;;;;;;;;;;8.93;59.41;98153.59;5117340;27;19949;-72
2020/12/29 04:03:42;;;;;;;;;;;;;;;8.95;59.06;98161.41;5126854;27;19928;-72
2020/12/29 04:06:10;;;;;;;;;;;;;;;8.94;59.03;98157.94;5116773;27;19932;-72
2020/12/29 04:08:37;;;;;;;;;;;;;;;8.93;59.42;98152.75;5124481;27;20309;-71
2020/12/29 04:11:04;;;;;;;;;;;;;;;8.95;59.28;98150.88;5128246;27;20552;-72
2020/12/29 04:13:42;;;;;;;;;;;;;;;8.94;59.33;98143.88;5119426;27;19980;-72
2020/12/29 04:16:10;;;;;;;;;;;;;;;8.92;59.04;98146.63;5115450;27;19934;-72
2020/12/29 04:18:37;;;;;;;;;;;;;;;8.93;59.45;98142.19;5127380;27;19927;-72
2020/12/29 04:21:04;;;;;;;;;;;;;;;8.93;59.57;98129.00;5124885;27;19923;-72
2020/12/29 04:23:32;;;;;;;;;;;;;;;8.92;59.72;98132.59;5131428;27;19927;-72
2020/12/29 04:25:59;;;;;;;;;;;;;;;8.90;59.38;98122.13;5133383;27;19971;-72
2020/12/29 04:28:26;;;;;;;;;;;;;;;8.91;59.76;98123.84;5118166;27;20015;-72
2020/12/29 04:30:54;;;;;;;;;;;;;;;8.91;59.30;98123.00;5121919;27;19938;-72
2020/12/29 04:33:21;;;;;;;;;;;;;;;8.91;59.67;98118.56;5124785;27;20369;-72
2020/12/29 04:35:48;;;;;;;;;;;;;;;8.90;59.34;98116.84;5123651;27;19945;-72
2020/12/29 04:38:15;;;;;;;;;;;;;;;8.92;59.61;98116.78;5152181;27;20018;-72
2020/12/29 04:40:43;;;;;;;;;;;;;;;8.90;59.10;98110.75;5119743;27;19928;-72
2020/12/29 04:43:11;;;;;;;;;;;;;;;8.89;59.70;98106.41;5119446;27;20024;-72
2020/12/29 04:45:38;;;;;;;;;;;;;;;8.89;59.73;98106.41;5122921;27;19927;-72
2020/12/29 04:48:05;;;;;;;;;;;;;;;8.88;59.68;98099.47;5136911;27;19928;-72
2020/12/29 04:50:35;;;;;;;;;;;;;;;8.87;59.76;98103.03;5118743;27;19931;-72
2020/12/29 04:53:02;;;;;;;;;;;;;;;8.87;59.55;98114.44;5123730;27;19966;-72
2020/12/29 04:55:30;;;;;;;;;;;;;;;8.86;59.49;98118.00;5129309;27;20461;-72
2020/12/29 04:57:59;;;;;;;;;;;;;;;8.85;59.29;98115.47;5122251;27;19923;-72
2020/12/29 05:00:26;;;;;;;;;;;;;;;8.84;59.63;98117.25;5126035;27;20397;-72
2020/12/29 05:02:53;;;;;;;;;;;;;;;8.83;58.98;98123.47;5124113;27;19923;-72
2020/12/29 05:05:22;;;;;;;;;;;;;;;8.82;59.92;98110.38;5123659;27;19974;-72
2020/12/29 05:07:49;;;;;;;;;;;;;;;8.82;59.92;98105.97;5130380;27;19930;-72
2020/12/29 05:10:16;;;;;;;;;;;;;;;8.82;59.21;98102.50;5119963;27;19927;-72
2020/12/29 05:12:46;;;;;;;;;;;;;;;8.80;59.21;98108.69;5127796;27;20374;-70
2020/12/29 05:15:14;;;;;;;;;;;;;;;8.79;59.51;98101.72;5125065;27;19935;-70
2020/12/29 05:17:41;;;;;;;;;;;;;;;8.79;59.92;98093.81;5125639;27;20415;-71
2020/12/29 05:20:09;;;;;;;;;;;;;;;8.78;59.36;98093.91;5122994;27;19930;-72
2020/12/29 05:22:38;;;;;;;;;;;;;;;8.78;59.92;98096.53;5130572;27;19967;-72
2020/12/29 05:25:05;;;;;;;;;;;;;;;8.76;59.95;98094.00;5118047;27;19954;-71
2020/12/29 05:27:35;;;;;;;;;;;;;;;8.77;59.90;98105.41;5126030;27;19927;-70
2020/12/29 05:30:03;;;;;;;;;;;;;;;8.75;59.76;98105.50;5132824;27;19934;-70
2020/12/29 05:32:31;;;;;;;;;;;;;;;8.76;59.50;98114.22;5130426;27;20023;-70
2020/12/29 05:34:58;;;;;;;;;;;;;;;8.74;59.62;98114.34;5122460;28;19924;-70
2020/12/29 05:37:26;;;;;;;;;;;;;;;8.73;59.89;98115.31;5131473;28;19923;-70
2020/12/29 05:39:52;;;;;;;;;;;;;;;8.73;59.71;98117.06;5126482;28;19934;-70
2020/12/29 05:42:24;;;;;;;;;;;;;;;8.72;59.56;98116.25;5132720;28;20021;-70
2020/12/29 05:44:52;;;;;;;;;;;;;;;8.71;59.74;98105.78;5133021;27;19923;-70
2020/12/29 05:47:20;;;;;;;;;;;;;;;8.71;60.08;98117.16;5129886;28;19924;-70
2020/12/29 05:49:48;;;;;;;;;;;;;;;8.70;60.14;98120.75;5123127;28;19955;-70
2020/12/29 05:52:15;;;;;;;;;;;;;;;8.70;60.32;98127.81;5131191;28;19958;-70
2020/12/29 05:54:43;;;;;;;;;;;;;;;8.68;59.59;98112.09;5124835;27;19928;-70
2020/12/29 05:57:11;;;;;;;;;;;;;;;8.68;59.49;98121.78;5119528;28;19928;-70
2020/12/29 05:59:38;;;;;;;;;;;;;;;8.68;59.74;98116.50;5124249;28;19985;-70
2020/12/29 06:02:08;;;;;;;;;;;;;;;8.66;59.60;98113.13;5135593;28;19927;-69
2020/12/29 06:04:37;;;;;;;;;;;;;;;8.66;59.71;98119.25;5127274;27;19946;-70
2020/12/29 06:07:06;;;;;;;;;;;;;;;8.64;60.39;98116.72;5116117;28;20436;-70
2020/12/29 06:09:33;;;;;;;;;;;;;;;8.63;59.98;98106.25;5124227;28;19980;-70
2020/12/29 06:12:01;;;;;;;;;;;;;;;8.63;60.32;98106.25;5160388;27;20319;-70
2020/12/29 06:14:27;;;;;;;;;;;;;;;8.61;60.22;98108.13;5139004;28;19928;-69
2020/12/29 06:16:55;;;;;;;;;;;;;;;8.61;59.87;98103.69;5135389;28;19931;-70
2020/12/29 06:19:23;;;;;;;;;;;;;;;8.60;60.31;98102.03;5123501;28;19927;-70
2020/12/29 06:22:04;;;;;;;;;;;;;;;8.60;60.30;98099.41;5122533;28;19934;-70
2020/12/29 06:24:33;;;;;;;;;;;;;;;8.61;60.45;98089.69;5132047;28;19949;-70
2020/12/29 06:27:01;;;;;;;;;;;;;;;8.62;59.78;98094.03;5123865;28;20040;-70
2020/12/29 06:29:33;;;;;;;;;;;;;;;8.63;60.41;98079.91;5126053;27;20320;-70
2020/12/29 06:32:03;;;;;;;;;;;;;;;8.64;59.99;98071.03;5121443;28;20003;-70
2020/12/29 06:34:32;;;;;;;;;;;;;;;8.67;60.28;98076.13;5119941;28;21881;-70
2020/12/29 06:37:05;;;;;;;;;;;;;;;8.70;60.25;98081.22;5123108;28;19927;-70
2020/12/29 06:39:35;;;;;;;;;;;;;;;8.73;60.34;98088.94;5133618;28;19935;-70
2020/12/29 06:42:02;;;;;;;;;;;;;;;8.77;59.85;98090.44;5125120;27;19934;-70
2020/12/29 06:44:32;;;;;;;;;;;;;;;8.80;59.92;98086.78;5135033;27;19931;-72
2020/12/29 06:46:59;;;;;;;;;;;;;;;8.83;59.68;98081.28;5126472;27;20361;-70
2020/12/29 06:49:26;;;;;;;;;;;;;;;8.86;59.57;98074.97;5119032;27;19927;-70
2020/12/29 06:52:08;;;;;;;;;;;;;;;8.88;59.43;98083.66;5124671;27;20396;-70
2020/12/29 06:54:45;;;;;;;;;;;;;;;8.92;59.98;98087.78;5129964;27;19927;-70
2020/12/29 06:57:12;;;;;;;;;;;;;;;8.95;59.98;98082.31;5133338;27;20477;-70
2020/12/29 06:59:40;;;;;;;;;;;;;;;8.94;59.71;98086.75;5127021;27;19928;-70
2020/12/29 07:02:16;;;;;;;;;;;;;;;8.96;59.38;98070.81;5127902;27;19924;-70
2020/12/29 07:04:53;;;;;;;;;;;;;;;8.96;59.22;98061.13;5130988;27;19984;-70
2020/12/29 07:07:38;;;;;;;;;;;;;;;8.97;59.43;98073.38;5132681;27;19995;-70
2020/12/29 07:10:11;;;;;;;;;;;;;;;8.99;59.56;98069.78;5124269;27;20395;-69
2020/12/29 07:12:45;;;;;;;;;;;;;;;8.99;59.13;98057.44;5132643;27;19924;-70
2020/12/29 07:15:17;;;;;;;;;;;;;;;9.01;59.50;98068.75;5120956;27;19972;-70
2020/12/29 07:17:53;;;;;;;;;;;;;;;8.99;59.76;98065.34;5122541;27;19935;-71
2020/12/29 07:20:21;;;;;;;;;;;;;;;9.01;59.32;98070.50;5157194;27;19934;-71
2020/12/29 07:22:53;;;;;;;;;;;;;;;8.99;59.48;98073.25;5133010;27;19927;-70
2020/12/29 07:25:22;;;;;;;;;;;;;;;9.00;59.96;98074.13;5126595;27;19924;-70
2020/12/29 07:27:49;;;;;;;;;;;;;;;8.98;59.94;98079.47;5132844;27;19928;-69
2020/12/29 07:30:16;;;;;;;;;;;;;;;9.00;59.49;98077.59;5122988;27;19928;-70
2020/12/29 07:32:43;;;;;;;;;;;;;;;8.97;59.70;98073.38;5120365;27;19927;-70
2020/12/29 07:35:11;;;;;;;;;;;;;;;8.98;59.34;98082.09;5129172;27;19959;-70
2020/12/29 07:37:40;;;;;;;;;;;;;;;8.97;59.95;98096.25;5124385;27;19927;-70
2020/12/29 07:40:07;;;;;;;;;;;;;;;8.97;59.68;98086.53;5139112;27;20197;-70
2020/12/29 07:42:36;;;;;;;;;;;;;;;8.96;59.82;98084.84;5127779;27;19927;-69
2020/12/29 07:45:03;;;;;;;;;;;;;;;8.96;60.40;98082.22;5119899;27;19935;-69
2020/12/29 07:47:30;;;;;;;;;;;;;;;9.02;59.84;98090.69;5132717;27;19934;-70
2020/12/29 07:49:59;;;;;;;;;;;;;;;9.01;60.05;98092.47;5126656;27;19966;-72
2020/12/29 07:52:26;;;;;;;;;;;;;;;9.00;60.46;98090.78;5166051;27;20331;-72
2020/12/29 07:55:04;;;;;;;;;;;;;;;8.96;60.29;98095.38;5131500;27;19956;-72
2020/12/29 07:57:31;;;;;;;;;;;;;;;8.97;60.07;98090.97;5126178;27;19923;-71
2020/12/29 08:00:05;;;;;;;;;;;;;;;8.97;60.13;98109.44;5135345;27;19945;-71
2020/12/29 08:02:38;;;;;;;;;;;;;;;8.95;60.02;98101.59;5129232;27;20278;-70
2020/12/29 08:05:05;;;;;;;;;;;;;;;8.95;59.90;98106.88;5124367;27;19938;-71
2020/12/29 08:07:33;;;;;;;;;;;;;;;8.96;59.88;98103.31;5129425;27;19924;-71
2020/12/29 08:10:07;;;;;;;;;;;;;;;8.97;59.69;98107.63;5129436;27;20717;-72
2020/12/29 08:12:36;;;;;;;;;;;;;;;8.97;59.61;98118.19;5153015;27;19967;-71
2020/12/29 08:15:03;;;;;;;;;;;;;;;8.97;60.42;98110.28;5129722;27;19923;-71
2020/12/29 08:17:31;;;;;;;;;;;;;;;8.98;59.58;98119.03;5122935;27;19927;-72
2020/12/29 08:19:58;;;;;;;;;;;;;;;8.96;59.70;98111.22;5125147;27;19949;-71
2020/12/29 08:22:26;;;;;;;;;;;;;;;8.94;60.27;98114.88;5126153;27;19931;-72
2020/12/29 08:24:55;;;;;;;;;;;;;;;8.93;59.84;98124.59;5138325;27;19923;-71
2020/12/29 08:27:23;;;;;;;;;;;;;;;8.95;59.51;98124.50;5122221;27;19927;-72
2020/12/29 08:29:50;;;;;;;;;;;;;;;8.95;59.90;98119.22;5131396;27;19958;-71
2020/12/29 08:32:21;;;;;;;;;;;;;;;8.94;59.60;98118.38;5122203;27;19927;-72
2020/12/29 08:34:50;;;;;;;;;;;;;;;8.93;59.67;98126.38;5126424;27;20054;-72
2020/12/29 08:37:23;;;;;;;;;;;;;;;8.93;60.05;98129.88;5127236;27;19928;-71
2020/12/29 08:40:04;;;;;;;;;;;;;;;8.93;60.08;98136.91;5122667;27;19923;-71
2020/12/29 08:42:33;;;;;;;;;;;;;;;8.91;59.79;98129.09;5125568;27;19934;-72
2020/12/29 08:45:00;;;;;;;;;;;;;;;8.91;59.39;98129.09;5123782;27;19928;-70
2020/12/29 08:47:31;;;;;;;;;;;;;;;8.91;60.13;98133.53;5156699;27;19923;-70
2020/12/29 08:49:59;;;;;;;;;;;;;;;8.89;59.65;98138.91;5125347;27;20024;-69
2020/12/29 08:52:30;;;;;;;;;;;;;;;8.90;59.79;98135.31;5124760;27;19934;-69
2020/12/29 08:54:57;;;;;;;;;;;;;;;8.90;59.58;98135.31;5116058;27;19934;-70
2020/12/29 08:57:26;;;;;;;;;;;;;;;8.90;60.03;98127.41;5121503;27;20031;-70
2020/12/29 08:59:53;;;;;;;;;;;;;;;8.92;59.81;98133.44;5126632;27;19962;-70
2020/12/29 09:02:28;;;;;;;;;;;;;;;8.93;59.79;98131.66;5124311;27;19928;-70
2020/12/29 09:04:59;;;;;;;;;;;;;;;8.94;59.76;98122.78;5151184;27;19969;-71
2020/12/29 09:07:28;;;;;;;;;;;;;;;8.96;59.58;98128.84;5130339;27;19927;-72
2020/12/29 09:10:04;;;;;;;;;;;;;;;8.96;59.71;98137.59;5126724;27;19928;-72
2020/12/29 09:12:31;;;;;;;;;;;;;;;8.94;59.76;98142.13;5129518;27;20278;-73
2020/12/29 09:14:59;;;;;;;;;;;;;;;8.92;59.46;98141.34;5127921;27;20310;-72
2020/12/29 09:17:26;;;;;;;;;;;;;;;8.92;59.76;98143.16;5121131;27;19928;-70
2020/12/29 09:20:07;;;;;;;;;;;;;;;8.90;59.29;98151.13;5129373;27;19938;-71
2020/12/29 09:22:34;;;;;;;;;;;;;;;8.90;60.04;98151.13;5134360;27;19935;-74
2020/12/29 09:25:01;;;;;;;;;;;;;;;8.89;59.73;98151.25;5131679;27;19923;-73
2020/12/29 09:27:29;;;;;;;;;;;;;;;8.88;60.13;98157.47;5131299;27;20020;-72
2020/12/29 09:29:56;;;;;;;;;;;;;;;8.86;59.33;98159.34;5122503;28;20710;-74
2020/12/29 09:32:24;;;;;;;;;;;;;;;8.85;60.04;98155.88;5124863;27;19949;-73
2020/12/29 09:34:50;;;;;;;;;;;;;;;8.86;59.86;98161.97;5123518;27;19949;-74
2020/12/29 09:37:19;;;;;;;;;;;;;;;8.86;59.63;98157.53;5123577;28;20339;-73
2020/12/29 09:39:46;;;;;;;;;;;;;;;8.85;59.88;98157.66;5129240;28;19932;-72
2020/12/29 09:42:13;;;;;;;;;;;;;;;8.83;60.11;98157.75;5128048;28;19930;-71
2020/12/29 09:44:40;;;;;;;;;;;;;;;8.82;60.34;98160.47;5133714;28;19927;-70
2020/12/29 09:47:07;;;;;;;;;;;;;;;8.80;59.29;98152.66;5128657;28;19928;-70
2020/12/29 09:49:34;;;;;;;;;;;;;;;8.82;59.56;98157.84;5132385;28;20288;-71
2020/12/29 09:52:01;;;;;;;;;;;;;;;8.82;59.94;98160.47;5116901;28;19928;-71
2020/12/29 09:54:29;;;;;;;;;;;;;;;8.83;60.12;98159.53;5133682;28;19924;-71
2020/12/29 09:56:56;;;;;;;;;;;;;;;8.83;59.64;98164.81;5123455;28;20447;-71
2020/12/29 09:59:23;;;;;;;;;;;;;;;8.84;60.01;98166.50;5128849;28;19933;-71
2020/12/29 10:01:50;;;;;;;;;;;;;;;8.81;59.74;98162.25;5134093;28;19959;-71
2020/12/29 10:04:17;;;;;;;;;;;;;;;8.82;59.83;98161.31;5118847;28;19934;-72
2020/12/29 10:06:43;;;;;;;;;;;;;;;8.83;59.64;98167.47;5125211;28;20000;-72
2020/12/29 10:09:10;;;;;;;;;;;;;;;8.82;59.57;98166.59;5120496;28;20001;-71
2020/12/29 10:11:38;;;;;;;;;;;;;;;8.79;60.37;98164.97;5123124;28;19987;-72
2020/12/29 10:14:05;;;;;;;;;;;;;;;8.78;59.92;98171.19;5125091;28;19928;-72
2020/12/29 10:16:33;;;;;;;;;;;;;;;8.77;60.38;98177.44;5132836;27;19927;-72
2020/12/29 10:19:00;;;;;;;;;;;;;;;8.76;59.94;98165.19;5123945;27;19928;-71
2020/12/29 10:21:27;;;;;;;;;;;;;;;8.75;59.92;98163.47;5131686;27;19951;-70
2020/12/29 10:23:54;;;;;;;;;;;;;;;8.75;60.41;98181.09;5128707;27;19965;-71
2020/12/29 10:26:21;;;;;;;;;;;;;;;8.74;60.38;98168.84;5133561;27;19999;-71
2020/12/29 10:28:49;;;;;;;;;;;;;;;8.73;60.05;98175.06;5129577;27;19923;-71
2020/12/29 10:31:15;;;;;;;;;;;;;;;8.72;59.84;98178.63;5119966;27;19957;-71
2020/12/29 10:33:42;;;;;;;;;;;;;;;8.73;60.06;98175.06;5123445;27;19927;-71
2020/12/29 10:36:09;;;;;;;;;;;;;;;8.73;60.16;98180.34;5132280;27;19927;-71
2020/12/29 10:38:36;;;;;;;;;;;;;;;8.73;59.93;98183.84;5135379;27;19969;-71
2020/12/29 10:41:03;;;;;;;;;;;;;;;8.73;60.05;98183.84;5133783;27;19937;-71
2020/12/29 10:43:30;;;;;;;;;;;;;;;8.74;59.88;98187.31;5129390;27;19994;-71
2020/12/29 10:45:58;;;;;;;;;;;;;;;8.73;59.91;98178.56;5126762;27;19928;-72
2020/12/29 10:48:25;;;;;;;;;;;;;;;8.72;60.47;98183.91;5127156;27;19931;-72
2020/12/29 10:50:52;;;;;;;;;;;;;;;8.72;60.34;98190.03;5128230;27;19970;-71
2020/12/29 10:53:19;;;;;;;;;;;;;;;8.73;60.11;98191.75;5127088;27;19924;-71
2020/12/29 10:55:46;;;;;;;;;;;;;;;8.75;60.32;98196.91;5128799;27;19985;-71
2020/12/29 10:58:12;;;;;;;;;;;;;;;8.74;59.95;98192.56;5129211;27;19981;-71
2020/12/29 11:00:39;;;;;;;;;;;;;;;8.76;59.87;98195.94;5122361;27;19928;-71
2020/12/29 11:03:07;;;;;;;;;;;;;;;8.77;60.08;98201.16;5129722;27;19927;-71
2020/12/29 11:05:34;;;;;;;;;;;;;;;8.78;60.23;98199.34;5143032;27;19935;-71
2020/12/29 11:08:01;;;;;;;;;;;;;;;8.77;60.02;98205.56;5126728;27;19927;-71
2020/12/29 11:10:28;;;;;;;;;;;;;;;8.78;60.08;98202.81;5133647;27;19964;-71
2020/12/29 11:12:55;;;;;;;;;;;;;;;8.80;60.08;98198.31;5129173;27;20199;-71
2020/12/29 11:15:22;;;;;;;;;;;;;;;8.85;59.54;98195.41;5126656;27;19928;-71
2020/12/29 11:17:49;;;;;;;;;;;;;;;8.89;59.90;98196.91;5132175;27;19935;-71
2020/12/29 11:20:16;;;;;;;;;;;;;;;8.94;59.29;98199.25;5131563;27;19966;-71
2020/12/29 11:22:44;;;;;;;;;;;;;;;8.98;59.28;98198.13;5130760;27;19927;-71
2020/12/29 11:25:12;;;;;;;;;;;;;;;9.03;59.86;98196.06;5138029;27;19927;-71
2020/12/29 11:27:39;;;;;;;;;;;;;;;9.07;59.72;98200.19;5132446;27;19992;-71
2020/12/29 11:30:06;;;;;;;;;;;;;;;9.10;59.06;98204.44;5125014;27;19939;-72
2020/12/29 11:32:33;;;;;;;;;;;;;;;9.12;59.41;98205.19;5135627;27;19924;-71
2020/12/29 11:35:00;;;;;;;;;;;;;;;9.17;59.32;98197.84;5133993;27;19953;-71
2020/12/29 11:37:28;;;;;;;;;;;;;;;9.21;59.08;98209.06;5136681;27;19927;-71
2020/12/29 11:39:56;;;;;;;;;;;;;;;9.24;59.43;98208.88;5131353;27;20623;-73
2020/12/29 11:42:23;;;;;;;;;;;;;;;9.28;59.56;98205.94;5127751;27;19934;-72
2020/12/29 11:44:50;;;;;;;;;;;;;;;9.34;58.76;98207.34;5129270;27;19924;-72
2020/12/29 11:47:17;;;;;;;;;;;;;;;9.36;58.27;98201.97;5135234;27;20015;-72
2020/12/29 11:49:49;;;;;;;;;;;;;;;9.43;58.42;98205.94;5130536;27;19923;-73
2020/12/29 11:52:16;;;;;;;;;;;;;;;9.49;58.45;98208.16;5131824;27;20396;-72
2020/12/29 11:54:44;;;;;;;;;;;;;;;9.55;58.71;98214.88;5127042;27;19935;-72
2020/12/29 11:57:11;;;;;;;;;;;;;;;9.60;58.06;98212.75;5117647;27;19927;-73
2020/12/29 11:59:39;;;;;;;;;;;;;;;9.68;58.09;98217.53;5120151;27;19928;-73
2020/12/29 12:02:06;;;;;;;;;;;;;;;9.72;57.94;98221.72;5129388;27;19939;-73
2020/12/29 12:04:33;;;;;;;;;;;;;;;9.72;57.82;98221.72;5124508;27;19987;-72
2020/12/29 12:07:00;;;;;;;;;;;;;;;9.72;58.41;98222.53;5123825;27;19951;-73
2020/12/29 12:09:27;;;;;;;;;;;;;;;9.70;58.18;98223.59;5123495;27;19928;-73
2020/12/29 12:11:58;;;;;;;;;;;;;;;9.70;57.93;98218.31;5147965;27;19945;-72
2020/12/29 12:14:25;;;;;;;;;;;;;;;9.71;58.18;98220.84;5124990;27;20019;-73
2020/12/29 12:16:52;;;;;;;;;;;;;;;9.73;58.38;98226.03;5126507;27;19949;-72
2020/12/29 12:19:19;;;;;;;;;;;;;;;9.79;57.92;98223.81;5120196;27;19927;-72
2020/12/29 12:21:46;;;;;;;;;;;;;;;9.90;57.56;98219.66;5121859;27;19928;-72
2020/12/29 12:24:13;;;;;;;;;;;;;;;9.94;57.10;98219.38;5123210;27;19927;-72
2020/12/29 12:26:40;;;;;;;;;;;;;;;9.92;57.26;98226.53;5119642;27;19986;-72
2020/12/29 12:29:08;;;;;;;;;;;;;;;9.89;57.86;98221.47;5132139;27;19928;-72
2020/12/29 12:31:34;;;;;;;;;;;;;;;9.85;57.49;98230.53;5122504;27;19928;-72
2020/12/29 12:34:01;;;;;;;;;;;;;;;9.78;57.88;98232.72;5127665;27;19927;-72
2020/12/29 12:36:29;;;;;;;;;;;;;;;9.74;58.41;98236.47;5125301;27;19954;-72
2020/12/29 12:38:56;;;;;;;;;;;;;;;9.75;58.54;98227.63;5126375;27;19954;-72
2020/12/29 12:41:23;;;;;;;;;;;;;;;9.78;58.41;98229.22;5123793;27;20567;-72
2020/12/29 12:43:50;;;;;;;;;;;;;;;9.82;58.26;98227.22;5124567;27;19981;-72
2020/12/29 12:46:18;;;;;;;;;;;;;;;9.79;58.36;98230.91;5129509;27;19959;-72
2020/12/29 12:48:44;;;;;;;;;;;;;;;9.75;58.68;98235.53;5123860;27;20144;-72
2020/12/29 12:51:13;;;;;;;;;;;;;;;9.72;58.35;98235.75;5124112;27;20014;-73
2020/12/29 12:53:40;;;;;;;;;;;;;;;9.66;58.74;98238.75;5123385;27;19995;-73
2020/12/29 12:56:11;;;;;;;;;;;;;;;9.62;58.64;98243.38;5123953;27;20726;-73
2020/12/29 12:58:38;;;;;;;;;;;;;;;9.61;58.18;98244.34;5117385;28;19999;-72
2020/12/29 13:01:05;;;;;;;;;;;;;;;9.63;58.13;98250.38;5119833;27;20356;-72
2020/12/29 13:03:32;;;;;;;;;;;;;;;9.67;58.35;98251.03;5122604;27;19959;-73